SBI192 UUYH-USTR
Flight info
| Callsign | SBI192 |
|---|---|
| Flight time | 1h 32m |
| Altitude | 35000 |
| Route | OKRAN M59 ERUSA M168 BIBLI N987 GOREN |
| Aircraft | A20N/M-SDE2E3FGHIRWXY/LB1 |
Departure
| Time | 2026-04-28 17:15 |
|---|---|
| Airport | Ukhta Airport (UUYH) |
Arrival
| Time | 2026-04-28 18:47 |
|---|---|
| Airport | Roshchino International Airport (USTR) |
| Time | Latitude | Longitude | Altitude | Speed | Heading |
|---|---|---|---|---|---|
| 2026-04-28 17:08 | 63.55606 | 53.80266 | 473 ft | 0 kts | 256° |
| 2026-04-28 17:13 | 63.55608 | 53.80253 | 473 ft | 2 kts | 302° |
| 2026-04-28 17:13 | 63.55629 | 53.80201 | 473 ft | 7 kts | 325° |
| 2026-04-28 17:13 | 63.55696 | 53.80123 | 473 ft | 13 kts | 319° |
| 2026-04-28 17:13 | 63.55744 | 53.79958 | 473 ft | 13 kts | 307° |
| 2026-04-28 17:14 | 63.55825 | 53.79902 | 473 ft | 12 kts | 17° |
| 2026-04-28 17:14 | 63.55907 | 53.79960 | 476 ft | 12 kts | 18° |
| 2026-04-28 17:14 | 63.56000 | 53.80029 | 476 ft | 28 kts | 17° |
| 2026-04-28 17:14 | 63.56486 | 53.80342 | 476 ft | 113 kts | 17° |
| 2026-04-28 17:15 | 63.57452 | 53.80908 | 652 ft | 161 kts | 17° |
| 2026-04-28 17:15 | 63.58561 | 53.81566 | 1343 ft | 169 kts | 18° |
| 2026-04-28 17:15 | 63.59672 | 53.82272 | 2138 ft | 171 kts | 18° |
| 2026-04-28 17:15 | 63.60827 | 53.83012 | 2791 ft | 182 kts | 18° |
| 2026-04-28 17:16 | 63.62098 | 53.83826 | 3369 ft | 199 kts | 17° |
| 2026-04-28 17:16 | 63.63417 | 53.84947 | 3927 ft | 213 kts | 37° |
| 2026-04-28 17:16 | 63.64296 | 53.87646 | 4461 ft | 222 kts | 77° |
| 2026-04-28 17:16 | 63.64338 | 53.91193 | 4891 ft | 238 kts | 104° |
| 2026-04-28 17:17 | 63.64035 | 53.94955 | 5510 ft | 254 kts | 103° |
| 2026-04-28 17:17 | 63.63739 | 53.99004 | 6248 ft | 276 kts | 102° |
| 2026-04-28 17:17 | 63.63448 | 54.03203 | 7376 ft | 275 kts | 102° |
| 2026-04-28 17:17 | 63.63157 | 54.07465 | 8276 ft | 281 kts | 102° |
| 2026-04-28 17:18 | 63.62859 | 54.11809 | 9132 ft | 285 kts | 102° |
| 2026-04-28 17:18 | 63.62555 | 54.16213 | 9960 ft | 291 kts | 103° |
| 2026-04-28 17:18 | 63.62236 | 54.20763 | 10584 ft | 304 kts | 103° |
| 2026-04-28 17:18 | 63.61897 | 54.25567 | 11067 ft | 320 kts | 103° |
| 2026-04-28 17:19 | 63.61535 | 54.30630 | 11765 ft | 339 kts | 102° |
| 2026-04-28 17:19 | 63.61166 | 54.35841 | 13015 ft | 339 kts | 102° |
| 2026-04-28 17:19 | 63.60800 | 54.40995 | 14142 ft | 341 kts | 102° |
| 2026-04-28 17:19 | 63.60422 | 54.46233 | 15174 ft | 348 kts | 102° |
| 2026-04-28 17:20 | 63.60034 | 54.51628 | 16256 ft | 353 kts | 102° |
| 2026-04-28 17:20 | 63.59782 | 54.55182 | 16958 ft | 356 kts | 103° |
| 2026-04-28 17:20 | 63.59248 | 54.62481 | 18343 ft | 361 kts | 102° |
| 2026-04-28 17:20 | 63.58838 | 54.68021 | 19334 ft | 365 kts | 103° |
| 2026-04-28 17:21 | 63.58422 | 54.73640 | 20274 ft | 369 kts | 103° |
| 2026-04-28 17:21 | 63.58001 | 54.79303 | 21149 ft | 372 kts | 103° |
| 2026-04-28 17:21 | 63.57578 | 54.84991 | 21962 ft | 376 kts | 103° |
| 2026-04-28 17:22 | 63.56710 | 54.96617 | 23326 ft | 383 kts | 103° |
| 2026-04-28 17:22 | 63.56263 | 55.02547 | 23936 ft | 388 kts | 103° |
| 2026-04-28 17:22 | 63.55810 | 55.08507 | 24528 ft | 391 kts | 104° |
| 2026-04-28 17:23 | 63.54881 | 55.20561 | 25590 ft | 399 kts | 104° |
| 2026-04-28 17:23 | 63.54407 | 55.26641 | 26101 ft | 401 kts | 104° |
| 2026-04-28 17:23 | 63.53922 | 55.32824 | 26597 ft | 404 kts | 104° |
| 2026-04-28 17:23 | 63.53439 | 55.38957 | 27004 ft | 407 kts | 104° |
| 2026-04-28 17:24 | 63.52943 | 55.45212 | 27377 ft | 410 kts | 104° |
| 2026-04-28 17:24 | 63.52444 | 55.51476 | 27741 ft | 413 kts | 104° |
| 2026-04-28 17:24 | 63.51940 | 55.57775 | 28087 ft | 415 kts | 104° |
| 2026-04-28 17:24 | 63.51431 | 55.64114 | 28418 ft | 418 kts | 105° |
| 2026-04-28 17:25 | 63.50914 | 55.70546 | 28756 ft | 419 kts | 106° |
| 2026-04-28 17:25 | 63.49615 | 55.83127 | 29400 ft | 411 kts | 122° |
| 2026-04-28 17:25 | 63.48088 | 55.88419 | 29766 ft | 400 kts | 136° |
| 2026-04-28 17:26 | 63.46077 | 55.92617 | 30070 ft | 395 kts | 147° |
| 2026-04-28 17:26 | 63.43885 | 55.96247 | 30187 ft | 402 kts | 148° |
| 2026-04-28 17:26 | 63.41627 | 55.99945 | 30309 ft | 408 kts | 148° |
| 2026-04-28 17:26 | 63.39309 | 56.03749 | 30438 ft | 414 kts | 148° |
| 2026-04-28 17:27 | 63.37003 | 56.07546 | 30644 ft | 417 kts | 148° |
| 2026-04-28 17:27 | 63.34683 | 56.11375 | 30955 ft | 416 kts | 148° |
| 2026-04-28 17:27 | 63.32383 | 56.15171 | 31289 ft | 415 kts | 148° |
| 2026-04-28 17:27 | 63.30095 | 56.18945 | 31624 ft | 413 kts | 148° |
| 2026-04-28 17:28 | 63.27805 | 56.22716 | 31940 ft | 413 kts | 148° |
| 2026-04-28 17:28 | 63.23211 | 56.30258 | 32542 ft | 412 kts | 148° |
| 2026-04-28 17:28 | 63.20896 | 56.34048 | 32840 ft | 412 kts | 148° |
| 2026-04-28 17:29 | 63.18607 | 56.37784 | 33096 ft | 413 kts | 148° |
| 2026-04-28 17:29 | 63.16293 | 56.41552 | 33291 ft | 416 kts | 147° |
| 2026-04-28 17:29 | 63.13976 | 56.45320 | 33448 ft | 419 kts | 147° |
| 2026-04-28 17:30 | 63.09252 | 56.52988 | 33793 ft | 424 kts | 147° |
| 2026-04-28 17:30 | 63.04539 | 56.60614 | 34201 ft | 426 kts | 147° |
| 2026-04-28 17:30 | 63.02137 | 56.64489 | 34400 ft | 426 kts | 147° |
| 2026-04-28 17:31 | 62.99774 | 56.68290 | 34594 ft | 426 kts | 148° |
| 2026-04-28 17:31 | 62.94997 | 56.75952 | 34890 ft | 430 kts | 148° |
| 2026-04-28 17:32 | 62.87674 | 56.87634 | 34918 ft | 432 kts | 148° |
| 2026-04-28 17:32 | 62.82852 | 56.95294 | 34919 ft | 429 kts | 148° |
| 2026-04-28 17:33 | 62.78059 | 57.02868 | 34916 ft | 428 kts | 148° |
| 2026-04-28 17:33 | 62.74064 | 57.09157 | 34916 ft | 428 kts | 149° |
| 2026-04-28 17:34 | 62.68455 | 57.17951 | 34916 ft | 427 kts | 149° |
| 2026-04-28 17:34 | 62.63631 | 57.25480 | 34917 ft | 427 kts | 149° |
| 2026-04-28 17:35 | 62.58799 | 57.32988 | 34918 ft | 435 kts | 149° |
| 2026-04-28 17:35 | 62.53864 | 57.40626 | 34918 ft | 438 kts | 149° |
| 2026-04-28 17:36 | 62.48914 | 57.48264 | 34920 ft | 438 kts | 149° |
| 2026-04-28 17:36 | 62.43987 | 57.55832 | 34921 ft | 438 kts | 149° |
| 2026-04-28 17:37 | 62.39060 | 57.63367 | 34920 ft | 438 kts | 149° |
| 2026-04-28 17:37 | 62.34096 | 57.70926 | 34918 ft | 438 kts | 150° |
| 2026-04-28 17:38 | 62.29145 | 57.78434 | 34915 ft | 437 kts | 150° |
| 2026-04-28 17:38 | 62.24197 | 57.85905 | 34912 ft | 438 kts | 150° |
| 2026-04-28 17:39 | 62.19222 | 57.93386 | 34911 ft | 437 kts | 150° |
| 2026-04-28 17:40 | 62.11777 | 58.04525 | 34912 ft | 438 kts | 151° |
| 2026-04-28 17:40 | 62.06805 | 58.11928 | 34914 ft | 438 kts | 151° |
| 2026-04-28 17:41 | 62.01847 | 58.19280 | 34917 ft | 438 kts | 151° |
| 2026-04-28 17:41 | 61.96881 | 58.26611 | 34919 ft | 438 kts | 151° |
| 2026-04-28 17:42 | 61.91890 | 58.33954 | 34922 ft | 437 kts | 151° |
| 2026-04-28 17:42 | 61.86925 | 58.41228 | 34922 ft | 437 kts | 151° |
| 2026-04-28 17:43 | 61.81931 | 58.48512 | 34925 ft | 436 kts | 151° |
| 2026-04-28 17:43 | 61.76962 | 58.55730 | 34926 ft | 436 kts | 151° |
| 2026-04-28 17:44 | 61.71962 | 58.62968 | 34916 ft | 435 kts | 151° |
| 2026-04-28 17:44 | 61.67020 | 58.70090 | 34879 ft | 434 kts | 152° |
| 2026-04-28 17:45 | 61.62056 | 58.77221 | 34851 ft | 433 kts | 152° |
| 2026-04-28 17:45 | 61.57093 | 58.84322 | 34844 ft | 433 kts | 152° |
| 2026-04-28 17:46 | 61.52156 | 58.91355 | 34844 ft | 432 kts | 152° |
| 2026-04-28 17:46 | 61.47219 | 58.98360 | 34846 ft | 431 kts | 152° |
| 2026-04-28 17:47 | 61.42279 | 59.05345 | 34848 ft | 430 kts | 152° |
| 2026-04-28 17:47 | 61.37352 | 59.12284 | 34825 ft | 429 kts | 152° |
| 2026-04-28 17:48 | 61.32446 | 59.19167 | 34661 ft | 427 kts | 153° |
| 2026-04-28 17:48 | 61.29991 | 59.22601 | 34476 ft | 427 kts | 153° |
| 2026-04-28 17:48 | 61.27529 | 59.26039 | 34252 ft | 426 kts | 153° |
| 2026-04-28 17:48 | 61.25102 | 59.29419 | 34129 ft | 426 kts | 153° |
| 2026-04-28 17:49 | 61.22644 | 59.32836 | 34102 ft | 427 kts | 153° |
| 2026-04-28 17:49 | 61.20186 | 59.36247 | 34216 ft | 427 kts | 153° |
| 2026-04-28 17:49 | 61.17721 | 59.39663 | 34385 ft | 427 kts | 153° |
| 2026-04-28 17:49 | 61.15281 | 59.43037 | 34521 ft | 427 kts | 153° |
| 2026-04-28 17:50 | 61.12801 | 59.46460 | 34621 ft | 428 kts | 153° |
| 2026-04-28 17:50 | 61.07893 | 59.53218 | 34706 ft | 427 kts | 153° |
| 2026-04-28 17:51 | 61.02957 | 59.59986 | 34731 ft | 427 kts | 153° |
| 2026-04-28 17:51 | 60.98042 | 59.66695 | 34772 ft | 426 kts | 154° |
| 2026-04-28 17:52 | 60.93102 | 59.73416 | 34847 ft | 426 kts | 154° |
| 2026-04-28 17:52 | 60.85742 | 59.83385 | 34880 ft | 426 kts | 154° |
| 2026-04-28 17:53 | 60.80783 | 59.90071 | 34888 ft | 426 kts | 154° |
| 2026-04-28 17:53 | 60.75859 | 59.96683 | 34897 ft | 427 kts | 154° |
| 2026-04-28 17:54 | 60.70906 | 60.03311 | 34903 ft | 427 kts | 154° |
| 2026-04-28 17:54 | 60.65950 | 60.09917 | 34928 ft | 427 kts | 154° |
| 2026-04-28 17:55 | 60.61002 | 60.16488 | 34953 ft | 428 kts | 154° |
| 2026-04-28 17:55 | 60.56031 | 60.23064 | 34937 ft | 428 kts | 154° |
| 2026-04-28 17:56 | 60.51050 | 60.29630 | 34915 ft | 428 kts | 154° |
| 2026-04-28 17:56 | 60.46068 | 60.36172 | 34911 ft | 428 kts | 154° |
| 2026-04-28 17:57 | 60.41083 | 60.42693 | 34914 ft | 428 kts | 154° |
| 2026-04-28 17:57 | 60.36134 | 60.49144 | 34918 ft | 429 kts | 154° |
| 2026-04-28 17:58 | 60.31137 | 60.55633 | 34929 ft | 429 kts | 154° |
| 2026-04-28 17:58 | 60.26136 | 60.62104 | 34944 ft | 429 kts | 154° |
| 2026-04-28 17:59 | 60.21144 | 60.68539 | 34951 ft | 428 kts | 155° |
| 2026-04-28 17:59 | 60.16148 | 60.74956 | 34958 ft | 428 kts | 155° |
| 2026-04-28 18:00 | 60.11172 | 60.81328 | 34963 ft | 427 kts | 155° |
| 2026-04-28 18:00 | 60.06164 | 60.87716 | 34969 ft | 427 kts | 155° |
| 2026-04-28 18:01 | 60.01179 | 60.94047 | 34983 ft | 427 kts | 155° |
| 2026-04-28 18:01 | 59.96207 | 61.00341 | 35010 ft | 426 kts | 155° |
| 2026-04-28 18:02 | 59.91216 | 61.06643 | 35031 ft | 426 kts | 156° |
| 2026-04-28 18:02 | 59.86241 | 61.12898 | 35030 ft | 426 kts | 156° |
| 2026-04-28 18:03 | 59.81240 | 61.19157 | 35023 ft | 426 kts | 156° |
| 2026-04-28 18:03 | 59.76231 | 61.25406 | 35022 ft | 425 kts | 156° |
| 2026-04-28 18:04 | 59.71239 | 61.31613 | 35022 ft | 425 kts | 156° |
| 2026-04-28 18:04 | 59.66251 | 61.37793 | 35021 ft | 425 kts | 156° |
| 2026-04-28 18:05 | 59.62081 | 61.42943 | 35020 ft | 425 kts | 156° |
| 2026-04-28 18:05 | 59.56292 | 61.50069 | 35019 ft | 424 kts | 156° |
| 2026-04-28 18:06 | 59.51298 | 61.56189 | 35019 ft | 424 kts | 156° |
| 2026-04-28 18:06 | 59.46297 | 61.62296 | 34972 ft | 424 kts | 156° |
| 2026-04-28 18:07 | 59.41272 | 61.68406 | 34926 ft | 427 kts | 157° |
| 2026-04-28 18:07 | 59.36216 | 61.74536 | 34964 ft | 431 kts | 157° |
| 2026-04-28 18:08 | 59.31162 | 61.80648 | 35010 ft | 431 kts | 157° |
| 2026-04-28 18:08 | 59.26050 | 61.86808 | 35026 ft | 431 kts | 157° |
| 2026-04-28 18:09 | 59.20974 | 61.92901 | 35032 ft | 431 kts | 157° |
| 2026-04-28 18:09 | 59.15906 | 61.98962 | 35037 ft | 431 kts | 157° |
| 2026-04-28 18:10 | 59.10863 | 62.04987 | 35041 ft | 421 kts | 158° |
| 2026-04-28 18:10 | 59.05926 | 62.10847 | 35062 ft | 419 kts | 158° |
| 2026-04-28 18:11 | 59.00921 | 62.16760 | 35085 ft | 425 kts | 158° |
| 2026-04-28 18:11 | 58.95868 | 62.22712 | 35071 ft | 428 kts | 158° |
| 2026-04-28 18:12 | 58.90802 | 62.28671 | 35056 ft | 429 kts | 158° |
| 2026-04-28 18:12 | 58.85715 | 62.34631 | 35052 ft | 429 kts | 158° |
| 2026-04-28 18:13 | 58.80628 | 62.40571 | 35051 ft | 429 kts | 158° |
| 2026-04-28 18:13 | 58.75566 | 62.46462 | 35051 ft | 429 kts | 158° |
| 2026-04-28 18:14 | 58.70474 | 62.52366 | 35051 ft | 428 kts | 158° |
| 2026-04-28 18:14 | 58.65436 | 62.58199 | 34918 ft | 419 kts | 158° |
| 2026-04-28 18:15 | 58.62956 | 62.61059 | 34720 ft | 415 kts | 158° |
| 2026-04-28 18:15 | 58.60488 | 62.63902 | 34520 ft | 414 kts | 158° |
| 2026-04-28 18:15 | 58.58102 | 62.66849 | 34320 ft | 414 kts | 156° |
| 2026-04-28 18:15 | 58.55764 | 62.70049 | 34093 ft | 415 kts | 154° |
| 2026-04-28 18:16 | 58.53499 | 62.73481 | 33858 ft | 417 kts | 151° |
| 2026-04-28 18:16 | 58.51312 | 62.77139 | 33553 ft | 421 kts | 148° |
| 2026-04-28 18:16 | 58.49199 | 62.81042 | 33078 ft | 426 kts | 146° |
| 2026-04-28 18:16 | 58.47181 | 62.85155 | 32435 ft | 430 kts | 143° |
| 2026-04-28 18:17 | 58.45190 | 62.89310 | 31738 ft | 430 kts | 143° |
| 2026-04-28 18:17 | 58.43170 | 62.93502 | 31022 ft | 430 kts | 144° |
| 2026-04-28 18:17 | 58.41154 | 62.97676 | 30317 ft | 431 kts | 144° |
| 2026-04-28 18:17 | 58.39142 | 63.01839 | 29592 ft | 428 kts | 144° |
| 2026-04-28 18:18 | 58.37148 | 63.05967 | 29048 ft | 420 kts | 144° |
| 2026-04-28 18:18 | 58.35204 | 63.09984 | 28557 ft | 416 kts | 144° |
| 2026-04-28 18:18 | 58.33245 | 63.14017 | 28081 ft | 412 kts | 144° |
| 2026-04-28 18:18 | 58.31961 | 63.16654 | 27784 ft | 410 kts | 144° |
| 2026-04-28 18:19 | 58.29416 | 63.21875 | 27199 ft | 406 kts | 144° |
| 2026-04-28 18:19 | 58.27515 | 63.25768 | 26748 ft | 403 kts | 144° |
| 2026-04-28 18:19 | 58.25617 | 63.29648 | 26271 ft | 401 kts | 144° |
| 2026-04-28 18:19 | 58.23730 | 63.33498 | 25793 ft | 397 kts | 144° |
| 2026-04-28 18:20 | 58.21860 | 63.37302 | 25276 ft | 394 kts | 144° |
| 2026-04-28 18:20 | 58.20016 | 63.41053 | 24741 ft | 390 kts | 143° |
| 2026-04-28 18:20 | 58.18172 | 63.44800 | 24193 ft | 386 kts | 143° |
| 2026-04-28 18:20 | 58.16372 | 63.48453 | 23643 ft | 383 kts | 143° |
| 2026-04-28 18:21 | 58.14554 | 63.52139 | 23106 ft | 380 kts | 143° |
| 2026-04-28 18:21 | 58.12771 | 63.55745 | 22597 ft | 376 kts | 143° |
| 2026-04-28 18:21 | 58.11008 | 63.59306 | 22098 ft | 372 kts | 143° |
| 2026-04-28 18:21 | 58.09251 | 63.62819 | 21619 ft | 368 kts | 144° |
| 2026-04-28 18:22 | 58.07470 | 63.66303 | 21123 ft | 365 kts | 145° |
| 2026-04-28 18:22 | 58.05722 | 63.69702 | 20648 ft | 361 kts | 145° |
| 2026-04-28 18:22 | 58.03999 | 63.73050 | 20164 ft | 359 kts | 146° |
| 2026-04-28 18:22 | 58.02263 | 63.76419 | 19669 ft | 356 kts | 145° |
| 2026-04-28 18:23 | 58.00567 | 63.79703 | 19178 ft | 354 kts | 145° |
| 2026-04-28 18:23 | 57.98866 | 63.82994 | 18685 ft | 351 kts | 144° |
| 2026-04-28 18:23 | 57.97176 | 63.86265 | 18193 ft | 349 kts | 144° |
| 2026-04-28 18:23 | 57.95495 | 63.89518 | 17703 ft | 346 kts | 144° |
| 2026-04-28 18:24 | 57.93829 | 63.92742 | 17217 ft | 344 kts | 144° |
| 2026-04-28 18:24 | 57.92720 | 63.94885 | 16896 ft | 342 kts | 144° |
| 2026-04-28 18:24 | 57.90512 | 63.99147 | 16257 ft | 339 kts | 144° |
| 2026-04-28 18:24 | 57.88898 | 64.02254 | 15794 ft | 336 kts | 144° |
| 2026-04-28 18:25 | 57.87277 | 64.05372 | 15327 ft | 334 kts | 144° |
| 2026-04-28 18:25 | 57.85661 | 64.08475 | 14862 ft | 332 kts | 144° |
| 2026-04-28 18:25 | 57.84064 | 64.11536 | 14402 ft | 327 kts | 144° |
| 2026-04-28 18:26 | 57.80882 | 64.17497 | 13462 ft | 320 kts | 145° |
| 2026-04-28 18:26 | 57.79300 | 64.20375 | 12968 ft | 318 kts | 144° |
| 2026-04-28 18:26 | 57.77728 | 64.23226 | 12466 ft | 318 kts | 144° |
| 2026-04-28 18:26 | 57.76134 | 64.26123 | 11958 ft | 316 kts | 143° |
| 2026-04-28 18:27 | 57.74568 | 64.28976 | 11469 ft | 316 kts | 143° |
| 2026-04-28 18:27 | 57.73008 | 64.31817 | 10988 ft | 315 kts | 143° |
| 2026-04-28 18:27 | 57.71465 | 64.34628 | 10681 ft | 306 kts | 143° |
| 2026-04-28 18:27 | 57.69970 | 64.37366 | 10515 ft | 291 kts | 144° |
| 2026-04-28 18:28 | 57.68565 | 64.39932 | 10355 ft | 277 kts | 144° |
| 2026-04-28 18:28 | 57.67223 | 64.42374 | 10210 ft | 265 kts | 144° |
| 2026-04-28 18:28 | 57.65933 | 64.44713 | 10082 ft | 256 kts | 145° |
| 2026-04-28 18:28 | 57.64652 | 64.47018 | 9774 ft | 257 kts | 145° |
| 2026-04-28 18:29 | 57.63358 | 64.49330 | 9402 ft | 258 kts | 144° |
| 2026-04-28 18:29 | 57.62062 | 64.51649 | 9035 ft | 259 kts | 143° |
| 2026-04-28 18:29 | 57.60768 | 64.53967 | 8674 ft | 260 kts | 143° |
| 2026-04-28 18:29 | 57.59477 | 64.56291 | 8316 ft | 260 kts | 142° |
| 2026-04-28 18:30 | 57.58186 | 64.58611 | 7972 ft | 259 kts | 142° |
| 2026-04-28 18:30 | 57.57319 | 64.60174 | 7745 ft | 259 kts | 142° |
| 2026-04-28 18:30 | 57.55605 | 64.63269 | 7303 ft | 257 kts | 142° |
| 2026-04-28 18:30 | 57.54333 | 64.65562 | 6978 ft | 256 kts | 143° |
| 2026-04-28 18:31 | 57.53055 | 64.67839 | 6649 ft | 255 kts | 143° |
| 2026-04-28 18:31 | 57.51788 | 64.70097 | 6318 ft | 252 kts | 143° |
| 2026-04-28 18:31 | 57.50521 | 64.72351 | 6039 ft | 248 kts | 143° |
| 2026-04-28 18:31 | 57.49305 | 64.74592 | 5998 ft | 245 kts | 141° |
| 2026-04-28 18:32 | 57.48146 | 64.76849 | 5621 ft | 248 kts | 141° |
| 2026-04-28 18:32 | 57.46941 | 64.79190 | 5081 ft | 253 kts | 141° |
| 2026-04-28 18:32 | 57.45732 | 64.81553 | 4734 ft | 251 kts | 141° |
| 2026-04-28 18:32 | 57.44550 | 64.83867 | 4421 ft | 248 kts | 141° |
| 2026-04-28 18:33 | 57.43369 | 64.86174 | 4110 ft | 246 kts | 141° |
| 2026-04-28 18:33 | 57.42191 | 64.88470 | 3799 ft | 244 kts | 141° |
| 2026-04-28 18:33 | 57.41043 | 64.90707 | 3496 ft | 242 kts | 141° |
| 2026-04-28 18:33 | 57.39892 | 64.92996 | 3287 ft | 237 kts | 138° |
| 2026-04-28 18:34 | 57.38849 | 64.95222 | 3275 ft | 221 kts | 138° |
| 2026-04-28 18:34 | 57.37857 | 64.97272 | 3252 ft | 211 kts | 140° |
| 2026-04-28 18:34 | 57.36864 | 64.99220 | 3224 ft | 211 kts | 140° |
| 2026-04-28 18:34 | 57.35828 | 65.01181 | 3171 ft | 212 kts | 141° |
| 2026-04-28 18:35 | 57.34788 | 65.03117 | 3071 ft | 211 kts | 141° |
| 2026-04-28 18:35 | 57.33760 | 65.05014 | 2942 ft | 211 kts | 141° |
| 2026-04-28 18:35 | 57.32721 | 65.06925 | 2773 ft | 211 kts | 141° |
| 2026-04-28 18:35 | 57.31670 | 65.08857 | 2452 ft | 212 kts | 141° |
| 2026-04-28 18:36 | 57.30645 | 65.10754 | 2231 ft | 208 kts | 141° |
| 2026-04-28 18:36 | 57.29620 | 65.12651 | 2204 ft | 207 kts | 141° |
| 2026-04-28 18:36 | 57.28598 | 65.14533 | 2201 ft | 208 kts | 141° |
| 2026-04-28 18:36 | 57.27598 | 65.16387 | 2190 ft | 200 kts | 141° |
| 2026-04-28 18:37 | 57.26651 | 65.18150 | 2185 ft | 190 kts | 142° |
| 2026-04-28 18:37 | 57.25735 | 65.19850 | 2135 ft | 182 kts | 142° |
| 2026-04-28 18:37 | 57.24882 | 65.21438 | 1902 ft | 167 kts | 142° |
| 2026-04-28 18:37 | 57.24097 | 65.22894 | 1698 ft | 153 kts | 143° |
| 2026-04-28 18:38 | 57.23391 | 65.24206 | 1494 ft | 138 kts | 143° |
| 2026-04-28 18:38 | 57.22735 | 65.25425 | 1307 ft | 129 kts | 144° |
| 2026-04-28 18:38 | 57.22109 | 65.26581 | 1170 ft | 128 kts | 144° |
| 2026-04-28 18:38 | 57.21473 | 65.27759 | 1027 ft | 128 kts | 143° |
| 2026-04-28 18:39 | 57.20853 | 65.28902 | 880 ft | 126 kts | 141° |
| 2026-04-28 18:39 | 57.20233 | 65.30051 | 725 ft | 125 kts | 140° |
| 2026-04-28 18:39 | 57.19655 | 65.31246 | 597 ft | 125 kts | 132° |
| 2026-04-28 18:39 | 57.19159 | 65.32557 | 497 ft | 125 kts | 131° |
| 2026-04-28 18:40 | 57.18583 | 65.33710 | 422 ft | 122 kts | 136° |
| 2026-04-28 18:40 | 57.17993 | 65.34955 | 547 ft | 143 kts | 133° |
| 2026-04-28 18:40 | 57.17296 | 65.36235 | 1289 ft | 142 kts | 143° |
| 2026-04-28 18:40 | 57.16410 | 65.37102 | 1885 ft | 155 kts | 172° |
| 2026-04-28 18:41 | 57.15279 | 65.36686 | 2192 ft | 187 kts | 207° |
| 2026-04-28 18:41 | 57.14466 | 65.34761 | 2168 ft | 206 kts | 252° |
| 2026-04-28 18:41 | 57.14608 | 65.32111 | 2196 ft | 216 kts | 287° |
| 2026-04-28 18:41 | 57.15388 | 65.29718 | 2146 ft | 219 kts | 306° |
| 2026-04-28 18:42 | 57.16405 | 65.27652 | 2174 ft | 218 kts | 309° |
| 2026-04-28 18:42 | 57.17459 | 65.25656 | 2192 ft | 216 kts | 309° |
| 2026-04-28 18:42 | 57.18531 | 65.23644 | 2210 ft | 230 kts | 308° |
| 2026-04-28 18:42 | 57.19662 | 65.21516 | 2204 ft | 238 kts | 308° |
| 2026-04-28 18:43 | 57.20808 | 65.19368 | 2172 ft | 231 kts | 308° |
| 2026-04-28 18:43 | 57.21911 | 65.17314 | 1955 ft | 216 kts | 308° |
| 2026-04-28 18:43 | 57.23042 | 65.15584 | 1579 ft | 216 kts | 332° |
| 2026-04-28 18:43 | 57.24513 | 65.15464 | 1474 ft | 213 kts | 22° |
| 2026-04-28 18:44 | 57.25561 | 65.17203 | 1491 ft | 207 kts | 71° |
| 2026-04-28 18:44 | 57.24884 | 65.21675 | 1530 ft | 185 kts | 139° |
| 2026-04-28 18:44 | 57.23976 | 65.23194 | 1613 ft | 166 kts | 141° |
| 2026-04-28 18:45 | 57.23175 | 65.24578 | 1465 ft | 149 kts | 139° |
| 2026-04-28 18:45 | 57.22475 | 65.25871 | 1265 ft | 135 kts | 138° |
| 2026-04-28 18:45 | 57.21850 | 65.27042 | 1097 ft | 125 kts | 138° |
| 2026-04-28 18:45 | 57.21244 | 65.28171 | 963 ft | 124 kts | 138° |
| 2026-04-28 18:46 | 57.20639 | 65.29295 | 824 ft | 123 kts | 138° |
| 2026-04-28 18:46 | 57.20034 | 65.30418 | 675 ft | 123 kts | 138° |
| 2026-04-28 18:46 | 57.19437 | 65.31529 | 531 ft | 123 kts | 138° |
| 2026-04-28 18:46 | 57.18838 | 65.32643 | 395 ft | 118 kts | 138° |
| 2026-04-28 18:47 | 57.18332 | 65.33570 | 385 ft | 80 kts | 135° |
| 2026-04-28 18:47 | 57.18061 | 65.34072 | 385 ft | 31 kts | 134° |
| 2026-04-28 18:47 | 57.17921 | 65.34343 | 384 ft | 25 kts | 135° |
| 2026-04-28 18:47 | 57.17914 | 65.34527 | 384 ft | 14 kts | 46° |
| 2026-04-28 18:48 | 57.17972 | 65.34641 | 384 ft | 12 kts | 46° |
| 2026-04-28 18:48 | 57.18039 | 65.34728 | 384 ft | 12 kts | 34° |
| 2026-04-28 18:48 | 57.18076 | 65.34793 | 384 ft | 3 kts | 43° |
| 2026-04-28 18:48 | 57.18078 | 65.34796 | 384 ft | 0 kts | 43° |